Time;durP1;ratioP1;P1;durP2;ratioP2;P2;SDS_P1;SDS_P2;PMS_P1;PMS_P2;Temp;Humidity;BMP_temperature;BMP_pressure;BME280_temperature;BME280_humidity;BME280_pressure;Samples;Min_cycle;Max_cycle;Signal;HPM_P1;HPM_P2
2021/09/04 00:01:38;;;;;;;11.30;10.20;;;18.80;99.90;;;;;;5034968;28;20190;-78
2021/09/04 00:04:03;;;;;;;10.43;9.00;;;18.80;99.90;;;;;;5035060;28;20164;-78
2021/09/04 00:06:29;;;;;;;10.50;9.10;;;18.80;99.90;;;;;;5038221;28;20162;-78
2021/09/04 00:08:55;;;;;;;10.20;9.20;;;18.70;99.90;;;;;;5034830;28;20726;-78
2021/09/04 00:11:24;;;;;;;10.90;9.13;;;18.70;99.90;;;;;;5034777;28;20235;-78
2021/09/04 00:13:49;;;;;;;11.43;9.77;;;18.70;99.90;;;;;;5034811;28;21194;-78
2021/09/04 00:16:16;;;;;;;10.03;9.03;;;18.70;99.90;;;;;;5034106;28;20619;-78
2021/09/04 00:18:42;;;;;;;10.70;9.60;;;18.60;99.90;;;;;;5034883;28;20572;-77
2021/09/04 00:21:08;;;;;;;9.17;8.27;;;18.60;99.90;;;;;;5034535;28;20166;-78
2021/09/04 00:23:33;;;;;;;9.43;8.43;;;18.60;99.90;;;;;;5034532;28;20169;-78
2021/09/04 00:25:59;;;;;;;10.23;9.33;;;18.60;99.90;;;;;;5033044;28;20176;-77
2021/09/04 00:28:25;;;;;;;10.10;9.10;;;18.50;99.90;;;;;;5034662;28;20170;-79
2021/09/04 00:30:51;;;;;;;10.90;9.90;;;18.50;99.90;;;;;;5033036;28;20205;-78
2021/09/04 00:33:16;;;;;;;9.93;8.93;;;18.50;99.90;;;;;;5034334;28;20189;-78
2021/09/04 00:35:42;;;;;;;10.87;9.77;;;18.50;99.90;;;;;;5033572;28;20205;-79
2021/09/04 00:38:08;;;;;;;13.20;10.40;;;18.50;99.90;;;;;;5031978;28;20177;-78
2021/09/04 00:40:33;;;;;;;10.33;9.43;;;18.40;99.90;;;;;;5034909;28;20166;-79
2021/09/04 00:42:59;;;;;;;10.73;9.63;;;18.40;99.90;;;;;;5040782;28;20905;-79
2021/09/04 00:45:25;;;;;;;11.63;9.70;;;18.40;99.90;;;;;;5032946;28;20662;-79
2021/09/04 00:47:56;;;;;;;10.47;9.47;;;18.40;99.90;;;;;;5032616;28;20185;-78
2021/09/04 00:50:22;;;;;;;10.73;9.20;;;18.30;99.90;;;;;;5034280;28;20846;-78
2021/09/04 00:52:47;;;;;;;10.47;9.40;;;18.30;99.90;;;;;;5034248;28;20603;-79
2021/09/04 00:55:13;;;;;;;11.37;9.63;;;18.30;99.90;;;;;;5032953;28;20335;-79
2021/09/04 00:57:40;;;;;;;12.40;11.23;;;18.30;99.90;;;;;;5033729;28;20162;-79
2021/09/04 01:00:06;;;;;;;11.30;9.60;;;18.30;99.90;;;;;;5034259;28;20552;-79
2021/09/04 01:02:32;;;;;;;11.47;10.37;;;18.20;99.90;;;;;;5033890;28;20198;-79
2021/09/04 01:04:58;;;;;;;12.13;10.93;;;18.20;99.90;;;;;;5034642;28;20634;-79
2021/09/04 01:07:25;;;;;;;12.07;10.93;;;18.20;99.90;;;;;;5034091;28;21135;-78
2021/09/04 01:09:52;;;;;;;10.97;9.90;;;18.20;99.90;;;;;;5033374;28;20568;-78
2021/09/04 01:12:19;;;;;;;11.10;9.90;;;18.20;99.90;;;;;;5034483;28;20604;-77
2021/09/04 01:14:45;;;;;;;13.13;10.00;;;18.10;99.90;;;;;;5033941;28;20669;-78
2021/09/04 01:17:11;;;;;;;11.57;10.27;;;18.10;99.90;;;;;;5033658;28;20576;-78
2021/09/04 01:19:37;;;;;;;10.37;9.30;;;18.10;99.90;;;;;;5035236;28;20158;-77
2021/09/04 01:22:03;;;;;;;10.30;9.30;;;18.10;99.90;;;;;;5033942;28;20689;-79
2021/09/04 01:24:28;;;;;;;11.20;10.10;;;18.10;99.90;;;;;;5033939;28;20564;-79
2021/09/04 01:26:54;;;;;;;10.00;8.93;;;18.00;99.90;;;;;;5033534;28;20572;-79
2021/09/04 01:29:20;;;;;;;9.20;8.30;;;18.00;99.90;;;;;;5032387;28;20515;-78
2021/09/04 01:31:46;;;;;;;14.47;9.20;;;18.00;99.90;;;;;;5033282;28;20672;-78
2021/09/04 01:34:11;;;;;;;9.40;8.40;;;18.00;99.90;;;;;;5033213;28;20177;-78
2021/09/04 01:36:41;;;;;;;10.47;9.47;;;18.00;99.90;;;;;;5015088;28;20257;-78
2021/09/04 01:39:09;;;;;;;9.70;8.80;;;18.00;99.90;;;;;;5033187;28;20158;-78
2021/09/04 01:41:40;;;;;;;13.23;11.30;;;18.00;99.90;;;;;;5032910;28;20615;-78
2021/09/04 01:44:07;;;;;;;10.73;9.63;;;17.90;99.90;;;;;;5031823;28;21150;-78
2021/09/04 01:46:34;;;;;;;11.83;10.63;;;17.90;99.90;;;;;;5032545;28;20568;-78
2021/09/04 01:49:00;;;;;;;11.10;10.07;;;17.90;99.90;;;;;;5032685;28;20587;-78
2021/09/04 01:51:27;;;;;;;11.03;10.03;;;17.90;99.90;;;;;;5032998;28;20614;-78
2021/09/04 01:53:52;;;;;;;11.73;9.93;;;17.90;99.90;;;;;;5031512;28;20608;-78
2021/09/04 01:56:18;;;;;;;11.00;9.77;;;17.90;99.90;;;;;;5017129;28;20682;-78
2021/09/04 01:58:46;;;;;;;11.00;9.90;;;17.90;99.90;;;;;;5032737;28;20169;-78
2021/09/04 02:01:12;;;;;;;10.70;9.60;;;17.80;99.90;;;;;;5031555;28;20659;-78
2021/09/04 02:03:38;;;;;;;11.00;10.00;;;17.80;99.90;;;;;;5014897;28;21200;-78
2021/09/04 02:06:04;;;;;;;10.07;9.07;;;17.80;99.90;;;;;;5032213;28;20585;-78
2021/09/04 02:08:30;;;;;;;10.77;9.77;;;17.80;99.90;;;;;;5032580;28;20170;-78
2021/09/04 02:10:56;;;;;;;9.67;8.80;;;17.90;99.90;;;;;;5032520;28;20579;-78
2021/09/04 02:13:22;;;;;;;9.73;8.73;;;17.80;99.90;;;;;;5032268;28;20659;-78
2021/09/04 02:15:48;;;;;;;12.00;9.40;;;17.80;99.90;;;;;;5032326;28;20643;-78
2021/09/04 02:18:15;;;;;;;9.53;8.73;;;17.90;99.90;;;;;;5032331;28;20564;-78
2021/09/04 02:20:43;;;;;;;9.90;8.80;;;17.90;99.90;;;;;;5032387;28;21000;-78
2021/09/04 02:23:09;;;;;;;10.00;9.03;;;17.90;99.90;;;;;;5014432;28;20592;-78
2021/09/04 02:25:36;;;;;;;9.17;8.17;;;17.90;99.90;;;;;;5032267;28;20572;-78
2021/09/04 02:28:03;;;;;;;10.03;8.57;;;17.90;99.90;;;;;;5030495;28;20907;-78
2021/09/04 02:30:29;;;;;;;9.77;8.77;;;17.90;99.90;;;;;;5031115;28;20984;-78
2021/09/04 02:32:56;;;;;;;10.13;8.93;;;17.90;99.90;;;;;;5035701;28;20596;-77
2021/09/04 02:35:24;;;;;;;8.77;7.87;;;17.90;99.90;;;;;;5032141;28;20978;-78
2021/09/04 02:37:50;;;;;;;8.63;7.73;;;17.90;99.90;;;;;;5031688;28;20662;-78
2021/09/04 02:40:17;;;;;;;11.67;8.37;;;17.90;99.90;;;;;;5032047;28;21032;-78
2021/09/04 02:42:44;;;;;;;9.87;8.33;;;17.80;99.90;;;;;;5031541;28;20620;-78
2021/09/04 02:45:13;;;;;;;8.47;7.57;;;17.90;99.90;;;;;;5032085;28;21007;-78
2021/09/04 02:47:40;;;;;;;8.80;7.90;;;17.80;99.90;;;;;;5031639;28;20930;-78
2021/09/04 02:50:06;;;;;;;9.63;8.00;;;17.80;99.90;;;;;;5025856;28;20585;-78
2021/09/04 02:52:33;;;;;;;8.87;7.60;;;17.80;99.90;;;;;;5020876;28;20635;-78
2021/09/04 02:54:59;;;;;;;8.10;7.30;;;17.80;99.90;;;;;;5023638;28;20624;-78
2021/09/04 02:57:24;;;;;;;9.00;8.13;;;17.70;99.90;;;;;;5028008;28;20228;-78
2021/09/04 02:59:51;;;;;;;11.77;8.50;;;17.70;99.90;;;;;;5022424;28;20550;-78
2021/09/04 03:02:17;;;;;;;8.97;7.47;;;17.70;99.90;;;;;;5026951;28;20677;-78
2021/09/04 03:04:42;;;;;;;8.73;7.93;;;17.70;99.90;;;;;;5033297;28;20178;-78
2021/09/04 03:07:08;;;;;;;8.67;7.80;;;17.70;99.90;;;;;;5040167;28;20175;-78
2021/09/04 03:09:34;;;;;;;8.50;7.60;;;17.70;99.90;;;;;;5017325;28;20178;-77
2021/09/04 03:12:02;;;;;;;9.13;7.37;;;17.70;99.90;;;;;;5028186;28;20240;-77
2021/09/04 03:14:28;;;;;;;10.90;7.33;;;17.60;99.90;;;;;;5015718;28;20596;-78
2021/09/04 03:16:54;;;;;;;8.57;7.27;;;17.70;99.90;;;;;;5025569;28;20652;-78
2021/09/04 03:19:20;;;;;;;9.37;7.97;;;17.60;99.90;;;;;;4995097;28;20631;-78
2021/09/04 03:21:46;;;;;;;7.90;7.10;;;17.60;99.90;;;;;;5016419;28;20190;-79
2021/09/04 03:24:12;;;;;;;8.83;7.50;;;17.60;99.90;;;;;;5011869;28;20593;-78
2021/09/04 03:26:39;;;;;;;8.13;7.33;;;17.60;99.90;;;;;;5026782;28;20571;-78
2021/09/04 03:29:05;;;;;;;8.73;7.83;;;17.50;99.90;;;;;;5031779;28;20568;-78
2021/09/04 03:31:31;;;;;;;9.00;8.10;;;17.50;99.90;;;;;;5031934;28;20186;-78
2021/09/04 03:33:58;;;;;;;8.63;6.60;;;17.50;99.90;;;;;;5030493;28;21009;-78
2021/09/04 03:36:24;;;;;;;9.20;8.40;;;17.40;99.90;;;;;;5030185;28;20970;-78
2021/09/04 03:38:50;;;;;;;8.87;7.60;;;17.40;99.90;;;;;;5031497;28;20174;-78
2021/09/04 03:41:16;;;;;;;8.30;7.50;;;17.40;99.90;;;;;;5030184;28;20662;-79
2021/09/04 03:43:42;;;;;;;9.97;7.57;;;17.30;99.90;;;;;;5031012;28;20166;-78
2021/09/04 03:46:08;;;;;;;8.90;8.03;;;17.30;99.90;;;;;;5032488;28;20672;-78
2021/09/04 03:48:35;;;;;;;9.30;7.67;;;17.30;99.90;;;;;;5032169;28;20615;-77
2021/09/04 03:51:01;;;;;;;9.37;8.33;;;17.30;99.90;;;;;;5031418;28;20604;-77
2021/09/04 03:53:27;;;;;;;8.03;7.23;;;17.20;99.90;;;;;;5031600;28;20280;-77
2021/09/04 03:55:53;;;;;;;9.03;8.13;;;17.30;99.90;;;;;;5030832;28;20719;-77
2021/09/04 03:58:21;;;;;;;9.10;7.47;;;17.20;99.90;;;;;;5030313;28;20931;-78
2021/09/04 04:00:48;;;;;;;10.70;8.43;;;17.20;99.90;;;;;;5031517;28;20564;-79
2021/09/04 04:03:14;;;;;;;8.47;7.67;;;17.20;99.90;;;;;;5030208;28;20647;-78
2021/09/04 04:05:40;;;;;;;8.80;7.93;;;17.10;99.90;;;;;;5030547;28;20174;-78
2021/09/04 04:08:06;;;;;;;9.23;7.97;;;17.10;99.90;;;;;;5032468;28;20603;-79
2021/09/04 04:10:33;;;;;;;10.00;8.90;;;17.10;99.90;;;;;;5038623;28;20580;-79
2021/09/04 04:12:58;;;;;;;8.03;7.20;;;17.10;99.90;;;;;;5035035;28;20662;-78
2021/09/04 04:15:25;;;;;;;8.63;7.83;;;17.10;99.90;;;;;;5033458;28;20660;-78
2021/09/04 04:17:51;;;;;;;7.80;7.10;;;17.10;99.90;;;;;;5024517;28;21120;-78
2021/09/04 04:20:17;;;;;;;10.50;9.20;;;17.10;99.90;;;;;;5018869;28;20580;-78
2021/09/04 04:22:44;;;;;;;9.67;8.67;;;17.10;99.90;;;;;;5026797;28;20622;-78
2021/09/04 04:25:10;;;;;;;9.93;8.93;;;17.00;99.90;;;;;;5021253;28;20606;-78
2021/09/04 04:27:38;;;;;;;10.00;8.97;;;17.10;99.90;;;;;;5025020;28;20186;-78
2021/09/04 04:30:05;;;;;;;9.43;8.30;;;17.00;99.90;;;;;;5033097;28;20583;-78
2021/09/04 04:32:30;;;;;;;9.40;8.40;;;17.00;99.90;;;;;;5033477;28;20596;-79
2021/09/04 04:34:56;;;;;;;9.97;8.97;;;17.10;99.90;;;;;;5034448;28;20646;-79
2021/09/04 04:37:23;;;;;;;9.60;8.70;;;17.10;99.90;;;;;;5030806;28;21000;-79
2021/09/04 04:39:50;;;;;;;9.07;8.13;;;17.10;99.90;;;;;;5030701;28;20584;-79
2021/09/04 04:42:16;;;;;;;10.20;8.90;;;17.00;99.90;;;;;;5025775;28;20681;-79
2021/09/04 04:44:42;;;;;;;8.73;7.63;;;17.00;99.90;;;;;;5016561;28;20631;-78
2021/09/04 04:47:09;;;;;;;8.77;7.97;;;17.00;99.90;;;;;;5033768;28;20581;-79
2021/09/04 04:49:36;;;;;;;8.93;8.07;;;17.00;99.90;;;;;;5033187;28;20184;-79
2021/09/04 04:52:02;;;;;;;7.63;6.93;;;17.00;99.90;;;;;;5034364;28;20683;-79
2021/09/04 04:54:28;;;;;;;8.30;7.53;;;17.00;99.90;;;;;;5034104;28;20576;-78
2021/09/04 04:56:54;;;;;;;8.37;7.57;;;16.90;99.90;;;;;;5033734;28;20560;-78
2021/09/04 04:59:20;;;;;;;8.93;8.03;;;16.90;99.90;;;;;;5034783;28;20580;-78
2021/09/04 05:01:46;;;;;;;7.70;6.97;;;16.90;99.90;;;;;;5038826;28;20611;-78
2021/09/04 05:04:12;;;;;;;10.63;7.53;;;17.00;99.90;;;;;;5034084;28;20174;-78
2021/09/04 05:06:39;;;;;;;11.77;7.83;;;17.00;99.90;;;;;;5022024;28;20189;-78
2021/09/04 05:09:05;;;;;;;9.10;7.93;;;16.90;99.90;;;;;;5019508;28;20969;-78
2021/09/04 05:11:31;;;;;;;8.30;7.60;;;16.90;99.90;;;;;;5026882;28;20967;-78
2021/09/04 05:13:59;;;;;;;8.00;7.30;;;16.90;99.90;;;;;;5023658;28;20585;-78
2021/09/04 05:16:25;;;;;;;8.77;7.40;;;17.00;99.90;;;;;;5033419;28;20980;-78
2021/09/04 05:18:52;;;;;;;10.47;8.37;;;16.90;99.90;;;;;;5034213;28;20606;-78
2021/09/04 05:21:18;;;;;;;9.00;8.07;;;17.00;99.90;;;;;;5033730;28;20600;-78
2021/09/04 05:23:45;;;;;;;8.83;7.13;;;16.90;99.90;;;;;;5032948;28;20954;-79
2021/09/04 05:26:11;;;;;;;11.80;7.33;;;17.00;99.90;;;;;;5033156;28;20577;-78
2021/09/04 05:28:37;;;;;;;7.90;7.10;;;17.00;99.90;;;;;;5033832;28;20586;-78
2021/09/04 05:31:04;;;;;;;8.70;7.80;;;17.00;99.90;;;;;;5032141;28;20580;-79
2021/09/04 05:33:30;;;;;;;8.80;8.00;;;17.10;99.90;;;;;;5033447;28;20577;-79
2021/09/04 05:35:56;;;;;;;9.20;7.63;;;17.10;99.90;;;;;;5031933;28;20624;-78
2021/09/04 05:38:22;;;;;;;8.80;7.00;;;17.20;99.90;;;;;;5036943;28;20626;-79
2021/09/04 05:40:48;;;;;;;9.03;8.13;;;17.20;99.90;;;;;;5032211;28;20157;-78
2021/09/04 05:43:14;;;;;;;7.20;6.50;;;17.20;99.90;;;;;;5032963;28;20622;-78
2021/09/04 05:45:40;;;;;;;8.50;7.70;;;17.30;99.90;;;;;;5031993;28;21208;-79
2021/09/04 05:48:05;;;;;;;9.37;8.50;;;17.30;99.90;;;;;;5032783;28;20169;-78
2021/09/04 05:50:31;;;;;;;8.60;7.80;;;17.30;99.90;;;;;;5028292;28;20209;-78
2021/09/04 05:52:57;;;;;;;7.63;6.47;;;17.40;99.90;;;;;;5017156;28;20659;-78
2021/09/04 05:55:22;;;;;;;9.70;7.63;;;17.40;99.90;;;;;;5022962;28;20205;-78
2021/09/04 05:57:48;;;;;;;8.90;8.10;;;17.50;99.90;;;;;;5016359;28;20536;-78
2021/09/04 06:00:14;;;;;;;8.20;7.40;;;17.50;99.90;;;;;;5011947;28;20212;-77
2021/09/04 06:02:40;;;;;;;8.33;7.43;;;17.60;99.90;;;;;;5013330;28;20678;-78
2021/09/04 06:05:07;;;;;;;8.57;7.77;;;17.70;99.90;;;;;;5017189;28;20934;-78
2021/09/04 06:07:32;;;;;;;9.77;7.90;;;17.70;99.90;;;;;;5022880;28;20592;-78
2021/09/04 06:09:58;;;;;;;12.10;9.60;;;17.70;99.90;;;;;;5032940;28;20576;-78
2021/09/04 06:12:24;;;;;;;8.00;7.23;;;17.80;99.90;;;;;;5032739;28;20205;-78
2021/09/04 06:14:50;;;;;;;8.73;7.93;;;17.90;99.90;;;;;;5037243;28;20608;-78
2021/09/04 06:17:15;;;;;;;8.50;7.70;;;18.00;99.90;;;;;;5032112;28;20610;-78
2021/09/04 06:19:41;;;;;;;8.33;7.50;;;18.10;99.90;;;;;;5031254;28;20175;-79
2021/09/04 06:22:07;;;;;;;7.97;7.23;;;18.20;99.90;;;;;;5032290;28;20580;-78
2021/09/04 06:24:32;;;;;;;9.03;8.20;;;18.30;99.90;;;;;;5031958;28;20209;-79
2021/09/04 06:26:58;;;;;;;9.30;7.67;;;18.30;99.90;;;;;;5030621;28;20161;-78
2021/09/04 06:29:24;;;;;;;8.67;7.27;;;18.40;99.90;;;;;;5031983;28;20170;-78
2021/09/04 06:31:51;;;;;;;9.67;8.13;;;18.40;99.90;;;;;;5030996;28;20234;-78
2021/09/04 06:34:16;;;;;;;8.90;8.00;;;18.50;99.90;;;;;;5031953;28;20564;-78
2021/09/04 06:36:42;;;;;;;7.63;6.93;;;18.60;99.90;;;;;;5031769;28;20671;-78
2021/09/04 06:39:08;;;;;;;10.27;8.20;;;18.70;99.90;;;;;;5031898;28;20173;-79
2021/09/04 06:41:34;;;;;;;7.77;6.97;;;18.90;99.90;;;;;;5032062;28;20209;-79
2021/09/04 06:43:59;;;;;;;9.33;8.47;;;19.20;99.90;;;;;;5030845;28;20170;-78
2021/09/04 06:46:26;;;;;;;7.90;7.10;;;19.70;99.90;;;;;;5031841;28;20162;-78
2021/09/04 06:48:51;;;;;;;8.10;7.30;;;20.40;99.90;;;;;;5031699;28;20255;-78
2021/09/04 06:51:17;;;;;;;11.00;8.00;;;21.20;99.90;;;;;;5033702;28;21123;-79
2021/09/04 06:53:43;;;;;;;8.00;7.20;;;22.20;99.90;;;;;;5031551;28;20157;-79
2021/09/04 06:56:09;;;;;;;7.80;7.10;;;23.10;99.90;;;;;;5031434;28;20198;-78
2021/09/04 06:58:50;;;;;;;7.13;6.53;;;24.10;99.90;;;;;;5031516;28;20249;-78
2021/09/04 07:01:15;;;;;;;6.53;6.03;;;25.00;99.90;;;;;;5030619;28;20204;-78
2021/09/04 07:03:41;;;;;;;7.17;6.47;;;26.10;99.90;;;;;;5031653;28;20572;-78
2021/09/04 07:06:08;;;;;;;7.53;6.83;;;27.00;99.90;;;;;;5030029;28;21012;-78
2021/09/04 07:08:33;;;;;;;6.73;6.00;;;27.80;99.90;;;;;;5031487;28;20602;-78
2021/09/04 07:10:59;;;;;;;7.43;6.70;;;28.60;99.90;;;;;;5031648;28;20663;-78
2021/09/04 07:13:25;;;;;;;6.20;5.60;;;29.40;99.90;;;;;;5031550;28;20165;-78
2021/09/04 07:15:50;;;;;;;6.47;5.87;;;30.00;99.90;;;;;;5029853;28;20255;-78
2021/09/04 07:18:16;;;;;;;7.27;6.50;;;30.50;99.90;;;;;;5031398;28;20228;-78
2021/09/04 07:20:42;;;;;;;6.93;6.33;;;31.10;99.90;;;;;;5030946;28;20232;-78
2021/09/04 07:23:08;;;;;;;6.80;6.20;;;31.50;99.90;;;;;;5031298;28;20533;-78
2021/09/04 07:25:33;;;;;;;7.17;6.07;;;31.80;99.90;;;;;;5031112;28;20227;-78
2021/09/04 07:27:59;;;;;;;6.47;5.97;;;32.10;99.90;;;;;;5031301;28;20226;-79
2021/09/04 07:30:25;;;;;;;6.50;5.87;;;32.60;99.90;;;;;;5030083;28;20176;-77
2021/09/04 07:32:51;;;;;;;6.10;5.60;;;32.90;99.90;;;;;;5031696;28;20602;-78
2021/09/04 07:35:16;;;;;;;6.53;6.03;;;33.30;99.90;;;;;;5030548;28;20266;-76
2021/09/04 07:37:42;;;;;;;6.67;6.17;;;33.70;99.90;;;;;;5032006;28;20200;-78
2021/09/04 07:40:08;;;;;;;7.30;6.70;;;34.00;99.90;;;;;;5031410;28;20536;-79
2021/09/04 07:42:34;;;;;;;5.83;5.20;;;34.20;98.20;;;;;;5030899;28;20237;-78
2021/09/04 07:45:00;;;;;;;6.00;5.17;;;34.20;96.20;;;;;;5029230;28;21006;-78
2021/09/04 07:47:26;;;;;;;6.97;6.27;;;34.30;95.60;;;;;;5033662;28;20176;-78
2021/09/04 07:49:52;;;;;;;6.47;5.87;;;34.60;95.30;;;;;;5032704;28;20568;-78
2021/09/04 07:52:17;;;;;;;6.00;5.50;;;35.00;94.80;;;;;;5034019;28;20209;-79
2021/09/04 07:54:43;;;;;;;7.10;6.40;;;35.40;93.70;;;;;;5033638;28;20653;-79
2021/09/04 07:57:09;;;;;;;6.20;5.70;;;35.70;92.80;;;;;;5032417;28;20177;-78
2021/09/04 07:59:35;;;;;;;6.77;6.07;;;36.00;90.90;;;;;;5033708;28;20546;-78
2021/09/04 08:02:01;;;;;;;6.87;6.27;;;36.10;87.20;;;;;;5033734;28;20600;-78
2021/09/04 08:04:26;;;;;;;7.67;5.57;;;36.20;87.00;;;;;;5033932;28;20173;-77
2021/09/04 08:06:52;;;;;;;7.47;6.77;;;36.50;86.50;;;;;;5033444;28;20173;-77
2021/09/04 08:09:18;;;;;;;6.60;6.00;;;36.70;82.20;;;;;;5032631;28;20189;-77
2021/09/04 08:11:43;;;;;;;6.60;5.70;;;36.90;79.70;;;;;;5033412;28;20204;-78
2021/09/04 08:14:09;;;;;;;6.50;5.90;;;36.90;78.70;;;;;;5033955;28;20170;-79
2021/09/04 08:16:36;;;;;;;7.20;6.50;;;37.10;78.40;;;;;;5033223;28;20548;-80
2021/09/04 08:19:03;;;;;;;6.20;5.70;;;37.40;77.50;;;;;;5033665;28;20204;-79
2021/09/04 08:21:28;;;;;;;5.90;5.43;;;37.70;76.40;;;;;;5033604;28;20604;-79
2021/09/04 08:23:54;;;;;;;7.13;6.53;;;37.90;74.30;;;;;;5032491;28;20699;-79
2021/09/04 08:26:20;;;;;;;6.77;6.23;;;38.10;73.00;;;;;;5033247;28;20268;-79
2021/09/04 08:28:45;;;;;;;6.97;6.37;;;38.30;72.00;;;;;;5033672;28;20169;-80
2021/09/04 08:31:11;;;;;;;7.43;6.73;;;38.50;71.10;;;;;;5033371;28;20169;-79
2021/09/04 08:33:37;;;;;;;7.33;6.63;;;38.70;69.80;;;;;;5039772;28;20173;-79
2021/09/04 08:36:03;;;;;;;6.47;5.87;;;39.00;69.10;;;;;;5049002;28;20201;-78
2021/09/04 08:38:28;;;;;;;7.83;7.23;;;39.20;67.70;;;;;;5052947;28;20234;-78
2021/09/04 08:40:54;;;;;;;7.17;6.63;;;39.40;65.80;;;;;;5054523;28;20181;-79
2021/09/04 08:43:21;;;;;;;8.23;7.43;;;39.60;64.30;;;;;;5013134;28;1078401;-79
2021/09/04 08:45:47;;;;;;;7.10;6.40;;;39.70;63.90;;;;;;5051227;28;20196;-78
2021/09/04 08:48:13;;;;;;;8.83;8.10;;;39.80;62.50;;;;;;5050262;28;20576;-79
2021/09/04 08:50:39;;;;;;;10.03;9.13;;;40.00;61.00;;;;;;5040240;28;20181;-79
2021/09/04 08:53:05;;;;;;;6.93;6.43;;;40.00;60.90;;;;;;5036485;28;20952;-78
2021/09/04 08:55:31;;;;;;;7.03;6.53;;;40.20;59.80;;;;;;5035184;28;20695;-79
2021/09/04 08:57:57;;;;;;;6.47;5.87;;;40.30;58.50;;;;;;5034156;28;20982;-78
2021/09/04 09:00:29;;;;;;;7.10;6.60;;;40.40;58.50;;;;;;5035751;28;20162;-78
2021/09/04 09:02:56;;;;;;;7.90;7.20;;;40.50;57.50;;;;;;5035195;28;20687;-78
2021/09/04 09:05:22;;;;;;;7.63;6.93;;;40.60;57.50;;;;;;5034006;28;21154;-78
2021/09/04 09:07:48;;;;;;;7.33;6.83;;;40.80;56.30;;;;;;5034415;28;20577;-78
2021/09/04 09:10:23;;;;;;;8.60;7.80;;;40.80;56.20;;;;;;5035804;28;20184;-79
2021/09/04 09:12:52;;;;;;;6.87;6.27;;;40.90;55.50;;;;;;5041546;28;20611;-79
2021/09/04 09:15:24;;;;;;;7.57;6.97;;;41.00;55.40;;;;;;5034208;28;20620;-78
2021/09/04 09:18:00;;;;;;;7.70;7.10;;;41.10;54.50;;;;;;5034338;28;20573;-79
2021/09/04 09:20:27;;;;;;;7.73;6.97;;;41.20;51.10;;;;;;5034314;28;20659;-79
2021/09/04 09:22:53;;;;;;;7.27;6.67;;;41.10;53.00;;;;;;5035733;28;21058;-80
2021/09/04 09:25:24;;;;;;;7.23;6.53;;;41.00;52.80;;;;;;5035582;28;20581;-79
2021/09/04 09:27:59;;;;;;;7.50;6.80;;;41.00;52.20;;;;;;5034802;28;20572;-80
2021/09/04 09:30:34;;;;;;;7.33;6.73;;;40.90;50.90;;;;;;5033312;28;20598;-80
2021/09/04 09:33:00;;;;;;;7.37;6.67;;;40.90;51.30;;;;;;5033684;28;20631;-79
2021/09/04 09:35:39;;;;;;;7.17;6.57;;;40.80;51.50;;;;;;5033642;28;20650;-79
2021/09/04 09:38:06;;;;;;;6.33;5.73;;;40.90;51.30;;;;;;5032277;28;21056;-80
2021/09/04 09:40:32;;;;;;;8.47;6.83;;;40.80;51.10;;;;;;5034625;28;20594;-78
2021/09/04 09:42:58;;;;;;;6.50;5.97;;;40.90;50.40;;;;;;5032882;28;21242;-80
2021/09/04 09:45:41;;;;;;;7.30;6.70;;;40.80;50.00;;;;;;5033567;28;20901;-78
2021/09/04 09:48:09;;;;;;;7.17;6.57;;;40.70;49.40;;;;;;5031839;28;20173;-78
2021/09/04 09:50:36;;;;;;;7.50;6.63;;;40.50;49.70;;;;;;5033177;28;20596;-78
2021/09/04 09:53:05;;;;;;;5.97;5.37;;;40.50;50.10;;;;;;5021068;28;20621;-78
2021/09/04 09:55:31;;;;;;;5.30;4.90;;;40.50;50.50;;;;;;5024557;28;20632;-78
2021/09/04 09:58:00;;;;;;;6.80;6.20;;;40.70;50.30;;;;;;5027948;28;20580;-80
2021/09/04 10:00:27;;;;;;;7.20;5.17;;;40.90;49.50;;;;;;5026674;28;20593;-80
2021/09/04 10:03:01;;;;;;;6.80;5.23;;;41.00;49.50;;;;;;5011296;28;20612;-78
2021/09/04 10:05:28;;;;;;;6.60;6.00;;;41.10;48.90;;;;;;5014793;28;20600;-78
2021/09/04 10:07:55;;;;;;;7.63;6.83;;;41.20;48.80;;;;;;5020729;28;20584;-78
2021/09/04 10:10:23;;;;;;;7.47;6.47;;;41.20;47.90;;;;;;5014895;28;20603;-78
2021/09/04 10:12:49;;;;;;;5.80;5.30;;;41.00;47.70;;;;;;5017360;28;20617;-78
2021/09/04 10:15:16;;;;;;;7.40;5.43;;;40.90;48.10;;;;;;5012508;28;20625;-79
2021/09/04 10:17:43;;;;;;;7.07;6.47;;;41.00;48.20;;;;;;5010492;28;20182;-78
2021/09/04 10:20:09;;;;;;;6.07;5.27;;;40.90;47.00;;;;;;5013376;28;20581;-78
2021/09/04 10:22:35;;;;;;;6.07;5.57;;;40.80;47.10;;;;;;5004269;28;20604;-78
2021/09/04 10:25:16;;;;;;;6.50;5.90;;;40.70;47.20;;;;;;5025074;28;20589;-80
2021/09/04 10:27:44;;;;;;;5.80;5.40;;;40.70;47.50;;;;;;5010191;28;20184;-78
2021/09/04 10:30:29;;;;;;;7.10;6.40;;;40.80;47.20;;;;;;5031525;28;20655;-78
2021/09/04 10:33:09;;;;;;;6.00;5.50;;;40.80;47.40;;;;;;5030304;28;21034;-77
2021/09/04 10:35:46;;;;;;;6.27;5.77;;;40.60;46.90;;;;;;5026846;28;20632;-78
2021/09/04 10:38:18;;;;;;;6.03;5.53;;;40.50;46.80;;;;;;5032103;28;20579;-78
2021/09/04 10:40:48;;;;;;;6.27;5.87;;;40.30;47.00;;;;;;5032121;28;20569;-78
2021/09/04 10:43:15;;;;;;;5.80;5.30;;;40.00;46.60;;;;;;5032032;28;20627;-79
2021/09/04 10:45:44;;;;;;;6.50;6.00;;;39.70;46.80;;;;;;5032113;28;20644;-79
2021/09/04 10:48:14;;;;;;;6.60;6.00;;;39.50;46.80;;;;;;5030471;28;20569;-79
2021/09/04 10:50:41;;;;;;;6.77;6.17;;;39.40;46.90;;;;;;5032060;28;20580;-78
2021/09/04 10:53:07;;;;;;;5.27;4.87;;;39.10;47.20;;;;;;5031631;28;20588;-79
2021/09/04 10:55:38;;;;;;;7.47;6.80;;;39.00;47.30;;;;;;5030396;28;20726;-79
2021/09/04 10:58:07;;;;;;;6.93;6.33;;;38.80;46.90;;;;;;5030458;28;20584;-78
2021/09/04 11:00:51;;;;;;;6.90;6.30;;;38.40;46.70;;;;;;5030394;28;20572;-79
2021/09/04 11:03:19;;;;;;;8.90;6.93;;;38.00;46.90;;;;;;5031189;28;20695;-78
2021/09/04 11:05:47;;;;;;;6.80;5.60;;;37.70;47.20;;;;;;5035960;28;20591;-78
2021/09/04 11:08:18;;;;;;;6.43;5.83;;;37.70;47.90;;;;;;5032027;28;20576;-79
2021/09/04 11:11:05;;;;;;;7.10;6.50;;;37.60;47.90;;;;;;5031567;28;20978;-78
2021/09/04 11:13:39;;;;;;;6.40;5.90;;;37.60;47.70;;;;;;5030385;28;20576;-79
2021/09/04 11:16:24;;;;;;;5.23;4.73;;;37.50;47.80;;;;;;5031427;28;20622;-77
2021/09/04 11:18:50;;;;;;;6.30;5.70;;;37.40;48.20;;;;;;5031343;28;20614;-78
2021/09/04 11:21:17;;;;;;;5.27;4.80;;;37.30;47.80;;;;;;5030921;28;20595;-79
2021/09/04 11:23:43;;;;;;;6.10;5.63;;;37.20;47.80;;;;;;5030130;28;20969;-79
2021/09/04 11:26:09;;;;;;;5.97;5.37;;;37.10;47.90;;;;;;5030085;28;20572;-78
2021/09/04 11:28:35;;;;;;;6.03;5.43;;;37.00;47.60;;;;;;5031715;28;20972;-79
2021/09/04 11:31:03;;;;;;;6.90;6.27;;;37.00;48.20;;;;;;5031305;28;21182;-79
2021/09/04 11:33:29;;;;;;;6.23;5.73;;;37.00;48.30;;;;;;5034978;28;20957;-79
2021/09/04 11:35:55;;;;;;;6.30;5.70;;;36.90;48.40;;;;;;5036244;28;20665;-80
2021/09/04 11:38:21;;;;;;;4.77;4.07;;;36.90;48.10;;;;;;5039677;28;20264;-78
2021/09/04 11:40:47;;;;;;;5.07;4.67;;;36.80;48.30;;;;;;5033447;28;20576;-76
2021/09/04 11:43:16;;;;;;;5.70;5.20;;;36.70;48.20;;;;;;5035779;28;20608;-78
2021/09/04 11:45:43;;;;;;;5.30;4.90;;;36.60;48.30;;;;;;5038147;28;20575;-77
2021/09/04 11:48:11;;;;;;;4.40;4.10;;;36.60;48.50;;;;;;5033779;28;20675;-78
2021/09/04 11:50:37;;;;;;;5.17;4.77;;;36.50;48.70;;;;;;5031843;28;20997;-78
2021/09/04 11:53:11;;;;;;;5.43;4.80;;;36.50;48.60;;;;;;5031678;28;20628;-78
2021/09/04 11:55:38;;;;;;;5.73;5.00;;;36.40;48.40;;;;;;5030250;28;20644;-79
2021/09/04 11:58:14;;;;;;;6.40;4.50;;;36.30;48.40;;;;;;5031529;28;20573;-79
2021/09/04 12:00:42;;;;;;;7.20;6.50;;;36.30;49.10;;;;;;5030209;28;20560;-77
2021/09/04 12:03:12;;;;;;;6.53;6.03;;;36.20;48.80;;;;;;5031523;28;20588;-78
2021/09/04 12:05:45;;;;;;;6.40;5.77;;;36.00;48.80;;;;;;5030661;28;20572;-79
2021/09/04 12:08:16;;;;;;;6.80;5.50;;;35.90;48.80;;;;;;5029945;28;20579;-79
2021/09/04 12:10:44;;;;;;;4.90;4.50;;;35.80;49.10;;;;;;5031203;28;20583;-79
2021/09/04 12:13:16;;;;;;;4.30;3.90;;;35.70;49.20;;;;;;5030980;28;21175;-78
2021/09/04 12:15:43;;;;;;;5.60;5.10;;;35.60;49.30;;;;;;5031188;28;20631;-78
2021/09/04 12:18:09;;;;;;;5.37;4.97;;;35.50;49.30;;;;;;5031750;28;20885;-79
2021/09/04 12:20:35;;;;;;;6.03;4.37;;;35.40;49.20;;;;;;5030004;28;20580;-79
2021/09/04 12:23:15;;;;;;;5.70;4.90;;;35.30;49.40;;;;;;5036241;28;20223;-79
2021/09/04 12:25:41;;;;;;;6.27;4.87;;;35.10;49.40;;;;;;5031068;28;20671;-78
2021/09/04 12:28:27;;;;;;;5.90;5.17;;;34.90;49.50;;;;;;5030712;28;21053;-79
2021/09/04 12:30:59;;;;;;;5.07;4.27;;;34.70;49.80;;;;;;5030693;28;20595;-78
2021/09/04 12:33:26;;;;;;;5.40;4.90;;;34.60;50.00;;;;;;5034225;28;20572;-79
2021/09/04 12:35:55;;;;;;;5.57;5.17;;;34.50;50.20;;;;;;5032927;28;20726;-79
2021/09/04 12:38:24;;;;;;;4.97;4.50;;;34.40;50.30;;;;;;5034520;28;21153;-79
2021/09/04 12:41:09;;;;;;;5.00;4.60;;;34.30;50.70;;;;;;5033000;28;20560;-78
2021/09/04 12:43:55;;;;;;;7.33;4.23;;;34.10;51.10;;;;;;5034456;28;20949;-79